sensor_id;sensor_type;location;lat;lon;timestamp;temperature;humidity
20546;DHT22;10431;50.228;9.112;2023-04-03T08:21:08;21.10;88.30
20546;DHT22;10431;50.228;9.112;2023-04-03T08:23:35;21.00;86.10
20546;DHT22;10431;50.228;9.112;2023-04-03T08:26:15;20.70;86.50
20546;DHT22;10431;50.228;9.112;2023-04-03T08:28:42;20.40;85.50
20546;DHT22;10431;50.228;9.112;2023-04-03T08:31:13;20.30;85.50
20546;DHT22;10431;50.228;9.112;2023-04-03T08:33:39;20.20;85.20
20546;DHT22;10431;50.228;9.112;2023-04-03T08:36:23;20.20;85.30
20546;DHT22;10431;50.228;9.112;2023-04-03T08:38:51;20.10;85.30
20546;DHT22;10431;50.228;9.112;2023-04-03T08:44:07;20.10;85.30
20546;DHT22;10431;50.228;9.112;2023-04-03T08:49:46;20.10;85.40
20546;DHT22;10431;50.228;9.112;2023-04-03T08:54:30;20.00;84.60
20546;DHT22;10431;50.228;9.112;2023-04-03T10:10:21;21.00;87.70
20546;DHT22;10431;50.228;9.112;2023-04-03T10:15:43;20.30;81.30
20546;DHT22;10431;50.228;9.112;2023-04-03T10:20:50;19.50;72.10
20546;DHT22;10431;50.228;9.112;2023-04-03T10:23:51;19.30;75.10
20546;DHT22;10431;50.228;9.112;2023-04-03T10:34:35;19.90;77.40
20546;DHT22;10431;50.228;9.112;2023-04-03T10:39:53;20.20;78.40
20546;DHT22;10431;50.228;9.112;2023-04-03T10:45:28;20.40;79.30
20546;DHT22;10431;50.228;9.112;2023-04-03T10:50:51;20.60;80.10
20546;DHT22;10431;50.228;9.112;2023-04-03T10:53:31;20.60;80.30
20546;DHT22;10431;50.228;9.112;2023-04-03T10:58:45;20.60;80.80
20546;DHT22;10431;50.228;9.112;2023-04-03T11:01:21;20.60;81.70
20546;DHT22;10431;50.228;9.112;2023-04-03T11:03:59;20.60;81.20
20546;DHT22;10431;50.228;9.112;2023-04-03T11:06:34;20.50;81.20
20546;DHT22;10431;50.228;9.112;2023-04-03T11:09:15;20.50;81.40
20546;DHT22;10431;50.228;9.112;2023-04-03T11:11:44;20.50;81.50
20546;DHT22;10431;50.228;9.112;2023-04-03T11:20:04;19.40;71.90
20546;DHT22;10431;50.228;9.112;2023-04-03T11:22:51;19.50;73.70
20546;DHT22;10431;50.228;9.112;2023-04-03T11:25:23;19.60;73.50
20546;DHT22;10431;50.228;9.112;2023-04-03T11:28:05;19.70;74.10
20546;DHT22;10431;50.228;9.112;2023-04-03T11:33:28;19.90;75.60
20546;DHT22;10431;50.228;9.112;2023-04-03T11:36:42;20.00;76.20
20546;DHT22;10431;50.228;9.112;2023-04-03T11:38:53;20.10;76.70
20546;DHT22;10431;50.228;9.112;2023-04-03T11:41:38;20.20;77.20
20546;DHT22;10431;50.228;9.112;2023-04-03T11:44:23;20.20;77.60
20546;DHT22;10431;50.228;9.112;2023-04-03T11:46:57;20.20;77.90
20546;DHT22;10431;50.228;9.112;2023-04-03T12:05:54;20.40;79.60
20546;DHT22;10431;50.228;9.112;2023-04-03T12:08:28;20.30;79.80
20546;DHT22;10431;50.228;9.112;2023-04-03T12:16:34;20.20;79.10
20546;DHT22;10431;50.228;9.112;2023-04-03T12:24:33;20.20;80.10
20546;DHT22;10431;50.228;9.112;2023-04-03T12:48:38;20.20;81.90
20546;DHT22;10431;50.228;9.112;2023-04-03T12:51:05;20.10;81.90
20546;DHT22;10431;50.228;9.112;2023-04-03T12:53:35;20.10;82.00
20546;DHT22;10431;50.228;9.112;2023-04-03T12:56:27;20.10;82.10
20546;DHT22;10431;50.228;9.112;2023-04-03T12:58:55;20.10;82.20
20546;DHT22;10431;50.228;9.112;2023-04-03T13:01:24;20.10;82.30
20546;DHT22;10431;50.228;9.112;2023-04-03T13:03:56;20.10;82.30
20546;DHT22;10431;50.228;9.112;2023-04-03T13:06:26;20.10;82.40
20546;DHT22;10431;50.228;9.112;2023-04-03T13:08:58;20.10;82.50
20546;DHT22;10431;50.228;9.112;2023-04-03T13:11:32;20.10;82.50
20546;DHT22;10431;50.228;9.112;2023-04-03T13:14:14;20.10;82.50
20546;DHT22;10431;50.228;9.112;2023-04-03T13:16:40;20.10;82.50
20546;DHT22;10431;50.228;9.112;2023-04-03T13:19:17;20.10;82.60
20546;DHT22;10431;50.228;9.112;2023-04-03T13:21:44;20.10;82.50
20546;DHT22;10431;50.228;9.112;2023-04-03T13:24:11;20.00;82.60
20546;DHT22;10431;50.228;9.112;2023-04-03T13:26:38;20.10;82.50
20546;DHT22;10431;50.228;9.112;2023-04-03T13:29:07;20.10;82.70
20546;DHT22;10431;50.228;9.112;2023-04-03T13:31:42;20.10;82.70
20546;DHT22;10431;50.228;9.112;2023-04-03T13:36:54;20.10;82.80
20546;DHT22;10431;50.228;9.112;2023-04-03T13:39:27;20.10;82.80
20546;DHT22;10431;50.228;9.112;2023-04-03T13:41:58;20.10;82.90
20546;DHT22;10431;50.228;9.112;2023-04-03T13:44:29;20.10;82.90
20546;DHT22;10431;50.228;9.112;2023-04-03T13:46:59;20.10;83.00
20546;DHT22;10431;50.228;9.112;2023-04-03T13:49:33;20.10;83.00
20546;DHT22;10431;50.228;9.112;2023-04-03T13:52:01;20.00;83.10
20546;DHT22;10431;50.228;9.112;2023-04-03T13:54:35;20.10;83.20
20546;DHT22;10431;50.228;9.112;2023-04-03T13:57:02;20.00;83.30
20546;DHT22;10431;50.228;9.112;2023-04-03T13:59:35;20.00;83.30
20546;DHT22;10431;50.228;9.112;2023-04-03T14:04:30;20.00;82.80
20546;DHT22;10431;50.228;9.112;2023-04-03T14:06:57;20.00;82.50
20546;DHT22;10431;50.228;9.112;2023-04-03T14:09:25;20.00;82.30
20546;DHT22;10431;50.228;9.112;2023-04-03T14:11:55;20.00;82.00
20546;DHT22;10431;50.228;9.112;2023-04-03T14:14:27;20.00;81.70
20546;DHT22;10431;50.228;9.112;2023-04-03T14:16:56;20.00;81.30
20546;DHT22;10431;50.228;9.112;2023-04-03T14:19:29;19.90;80.90
20546;DHT22;10431;50.228;9.112;2023-04-03T14:21:56;19.90;80.60
20546;DHT22;10431;50.228;9.112;2023-04-03T14:24:23;19.90;80.20
20546;DHT22;10431;50.228;9.112;2023-04-03T14:26:51;19.90;80.20
20546;DHT22;10431;50.228;9.112;2023-04-03T14:29:19;19.90;79.80
20546;DHT22;10431;50.228;9.112;2023-04-03T14:31:47;19.90;79.10
20546;DHT22;10431;50.228;9.112;2023-04-03T14:34:14;19.90;78.80
20546;DHT22;10431;50.228;9.112;2023-04-03T14:36:42;19.90;78.60
20546;DHT22;10431;50.228;9.112;2023-04-03T14:39:16;19.90;78.40
20546;DHT22;10431;50.228;9.112;2023-04-03T14:41:44;20.00;78.40
20546;DHT22;10431;50.228;9.112;2023-04-03T14:44:11;19.90;78.30
20546;DHT22;10431;50.228;9.112;2023-04-03T14:46:40;19.90;78.30
20546;DHT22;10431;50.228;9.112;2023-04-03T14:49:21;20.00;78.60
20546;DHT22;10431;50.228;9.112;2023-04-03T14:51:48;20.00;78.60
20546;DHT22;10431;50.228;9.112;2023-04-03T14:54:16;20.00;78.10
20546;DHT22;10431;50.228;9.112;2023-04-03T14:56:43;19.70;75.90
20546;DHT22;10431;50.228;9.112;2023-04-03T14:59:12;19.70;74.90
20546;DHT22;10431;50.228;9.112;2023-04-03T15:01:39;19.80;75.10
20546;DHT22;10431;50.228;9.112;2023-04-03T15:04:19;19.80;75.80
20546;DHT22;10431;50.228;9.112;2023-04-03T15:06:47;19.90;76.00
20546;DHT22;10431;50.228;9.112;2023-04-03T15:09:22;19.90;76.50
20546;DHT22;10431;50.228;9.112;2023-04-03T15:11:50;19.90;76.70
20546;DHT22;10431;50.228;9.112;2023-04-03T15:14:17;20.00;77.20
20546;DHT22;10431;50.228;9.112;2023-04-03T15:16:44;20.00;77.60
20546;DHT22;10431;50.228;9.112;2023-04-03T15:19:11;20.00;77.80
20546;DHT22;10431;50.228;9.112;2023-04-03T15:21:38;20.00;78.00
20546;DHT22;10431;50.228;9.112;2023-04-03T15:24:05;20.00;78.30
20546;DHT22;10431;50.228;9.112;2023-04-03T15:26:32;20.00;78.60
20546;DHT22;10431;50.228;9.112;2023-04-03T15:28:58;19.90;77.20
20546;DHT22;10431;50.228;9.112;2023-04-03T15:31:25;20.00;77.40
20546;DHT22;10431;50.228;9.112;2023-04-03T15:33:51;20.00;77.70
20546;DHT22;10431;50.228;9.112;2023-04-03T15:36:17;19.90;77.90
20546;DHT22;10431;50.228;9.112;2023-04-03T15:38:43;20.00;78.20
20546;DHT22;10431;50.228;9.112;2023-04-03T15:41:10;20.00;78.40
20546;DHT22;10431;50.228;9.112;2023-04-03T15:43:36;20.00;78.60
20546;DHT22;10431;50.228;9.112;2023-04-03T15:46:03;20.00;78.90
20546;DHT22;10431;50.228;9.112;2023-04-03T15:48:29;20.00;79.10
20546;DHT22;10431;50.228;9.112;2023-04-03T15:50:55;20.00;79.30
20546;DHT22;10431;50.228;9.112;2023-04-03T15:53:22;20.00;79.50
20546;DHT22;10431;50.228;9.112;2023-04-03T15:55:48;20.00;80.40
20546;DHT22;10431;50.228;9.112;2023-04-03T15:58:14;20.00;80.00
20546;DHT22;10431;50.228;9.112;2023-04-03T16:00:40;20.00;80.10
20546;DHT22;10431;50.228;9.112;2023-04-03T16:03:12;20.00;80.30
20546;DHT22;10431;50.228;9.112;2023-04-03T16:05:41;20.00;80.50
20546;DHT22;10431;50.228;9.112;2023-04-03T16:08:07;20.00;80.60
20546;DHT22;10431;50.228;9.112;2023-04-03T16:10:37;20.00;80.80
20546;DHT22;10431;50.228;9.112;2023-04-03T16:13:04;20.00;80.80
20546;DHT22;10431;50.228;9.112;2023-04-03T16:15:30;19.90;80.90
20546;DHT22;10431;50.228;9.112;2023-04-03T16:17:58;19.90;81.10
20546;DHT22;10431;50.228;9.112;2023-04-03T16:20:25;20.00;81.30
20546;DHT22;10431;50.228;9.112;2023-04-03T16:22:52;19.90;82.30
20546;DHT22;10431;50.228;9.112;2023-04-03T16:25:18;19.80;81.80
20546;DHT22;10431;50.228;9.112;2023-04-03T16:27:45;19.80;82.20
20546;DHT22;10431;50.228;9.112;2023-04-03T16:30:11;19.80;82.20
20546;DHT22;10431;50.228;9.112;2023-04-03T16:32:38;19.80;82.00
20546;DHT22;10431;50.228;9.112;2023-04-03T16:35:05;19.80;82.00
20546;DHT22;10431;50.228;9.112;2023-04-03T16:37:31;19.90;82.00
20546;DHT22;10431;50.228;9.112;2023-04-03T16:39:57;19.90;82.10
20546;DHT22;10431;50.228;9.112;2023-04-03T16:42:26;19.90;82.20
20546;DHT22;10431;50.228;9.112;2023-04-03T16:44:53;19.90;82.40
20546;DHT22;10431;50.228;9.112;2023-04-03T16:47:19;19.90;83.20
20546;DHT22;10431;50.228;9.112;2023-04-03T16:49:46;19.90;82.20
20546;DHT22;10431;50.228;9.112;2023-04-03T16:52:13;19.50;76.90
20546;DHT22;10431;50.228;9.112;2023-04-03T16:54:39;19.60;79.00
20546;DHT22;10431;50.228;9.112;2023-04-03T16:57:05;19.60;79.00
20546;DHT22;10431;50.228;9.112;2023-04-03T16:59:31;19.70;79.10
20546;DHT22;10431;50.228;9.112;2023-04-03T17:01:58;19.80;79.20
20546;DHT22;10431;50.228;9.112;2023-04-03T17:04:24;19.90;81.10
20546;DHT22;10431;50.228;9.112;2023-04-03T17:06:52;19.90;80.90
20546;DHT22;10431;50.228;9.112;2023-04-03T17:09:18;19.90;80.60
20546;DHT22;10431;50.228;9.112;2023-04-03T17:11:46;19.90;80.50
20546;DHT22;10431;50.228;9.112;2023-04-03T17:14:13;19.90;80.20
20546;DHT22;10431;50.228;9.112;2023-04-03T17:16:39;19.90;80.10
20546;DHT22;10431;50.228;9.112;2023-04-03T17:19:05;20.00;78.00
20546;DHT22;10431;50.228;9.112;2023-04-03T17:21:33;19.30;65.60
20546;DHT22;10431;50.228;9.112;2023-04-03T17:24:02;18.80;62.10
20546;DHT22;10431;50.228;9.112;2023-04-03T17:26:29;18.60;59.90
20546;DHT22;10431;50.228;9.112;2023-04-03T17:28:55;18.80;64.30
20546;DHT22;10431;50.228;9.112;2023-04-03T17:31:22;19.20;65.70
20546;DHT22;10431;50.228;9.112;2023-04-03T17:33:48;19.60;65.90
20546;DHT22;10431;50.228;9.112;2023-04-03T17:36:14;20.10;65.90
20546;DHT22;10431;50.228;9.112;2023-04-03T17:38:40;20.40;66.00
20546;DHT22;10431;50.228;9.112;2023-04-03T17:41:08;20.70;66.00
20546;DHT22;10431;50.228;9.112;2023-04-03T17:43:35;20.90;66.20
20546;DHT22;10431;50.228;9.112;2023-04-03T17:46:06;21.00;66.60
20546;DHT22;10431;50.228;9.112;2023-04-03T17:48:38;21.10;66.80
20546;DHT22;10431;50.228;9.112;2023-04-03T17:51:10;21.20;67.10
20546;DHT22;10431;50.228;9.112;2023-04-03T17:53:37;21.30;67.60
20546;DHT22;10431;50.228;9.112;2023-04-03T17:56:11;21.30;68.00
20546;DHT22;10431;50.228;9.112;2023-04-03T17:58:38;21.30;68.50
20546;DHT22;10431;50.228;9.112;2023-04-03T18:03:34;21.20;69.30
20546;DHT22;10431;50.228;9.112;2023-04-03T18:06:09;21.10;70.40
20546;DHT22;10431;50.228;9.112;2023-04-03T18:08:40;21.00;71.40
20546;DHT22;10431;50.228;9.112;2023-04-03T18:11:07;21.00;72.10
20546;DHT22;10431;50.228;9.112;2023-04-03T18:13:34;20.90;72.90
20546;DHT22;10431;50.228;9.112;2023-04-03T18:16:05;20.80;73.50
20546;DHT22;10431;50.228;9.112;2023-04-03T18:18:31;20.80;74.20
20546;DHT22;10431;50.228;9.112;2023-04-03T18:20:57;20.60;74.50
20546;DHT22;10431;50.228;9.112;2023-04-03T18:23:25;20.60;75.10
20546;DHT22;10431;50.228;9.112;2023-04-03T18:25:53;20.60;76.50
20546;DHT22;10431;50.228;9.112;2023-04-03T18:28:19;20.40;74.50
20546;DHT22;10431;50.228;9.112;2023-04-03T18:30:46;20.40;74.40
20546;DHT22;10431;50.228;9.112;2023-04-03T18:33:12;20.40;75.00
20546;DHT22;10431;50.228;9.112;2023-04-03T18:35:38;20.40;75.30
20546;DHT22;10431;50.228;9.112;2023-04-03T18:38:04;20.40;75.60
20546;DHT22;10431;50.228;9.112;2023-04-03T18:40:31;20.50;75.70
20546;DHT22;10431;50.228;9.112;2023-04-03T18:42:59;20.50;75.90
20546;DHT22;10431;50.228;9.112;2023-04-03T18:45:27;20.50;76.20
20546;DHT22;10431;50.228;9.112;2023-04-03T18:47:54;20.50;76.50
20546;DHT22;10431;50.228;9.112;2023-04-03T18:50:21;20.60;77.00
20546;DHT22;10431;50.228;9.112;2023-04-03T18:52:48;20.60;77.10
20546;DHT22;10431;50.228;9.112;2023-04-03T18:55:16;20.50;77.10
20546;DHT22;10431;50.228;9.112;2023-04-03T18:57:46;20.50;77.40
20546;DHT22;10431;50.228;9.112;2023-04-03T19:00:13;20.50;77.60
20546;DHT22;10431;50.228;9.112;2023-04-03T19:02:39;20.50;77.80
20546;DHT22;10431;50.228;9.112;2023-04-03T19:05:08;20.50;78.10
20546;DHT22;10431;50.228;9.112;2023-04-03T19:07:36;20.40;78.20
20546;DHT22;10431;50.228;9.112;2023-04-03T19:10:02;20.40;78.80
20546;DHT22;10431;50.228;9.112;2023-04-03T19:12:28;20.30;79.10
20546;DHT22;10431;50.228;9.112;2023-04-03T19:14:55;20.20;79.40
20546;DHT22;10431;50.228;9.112;2023-04-03T19:17:21;20.10;79.60
20546;DHT22;10431;50.228;9.112;2023-04-03T19:19:47;20.10;79.90
20546;DHT22;10431;50.228;9.112;2023-04-03T19:22:13;20.00;80.30
20546;DHT22;10431;50.228;9.112;2023-04-03T19:24:39;20.10;80.70
20546;DHT22;10431;50.228;9.112;2023-04-03T19:27:05;20.10;80.90
20546;DHT22;10431;50.228;9.112;2023-04-03T19:29:32;20.10;81.00
20546;DHT22;10431;50.228;9.112;2023-04-03T19:31:58;20.10;81.30
20546;DHT22;10431;50.228;9.112;2023-04-03T19:34:25;20.10;81.30
20546;DHT22;10431;50.228;9.112;2023-04-03T19:36:51;20.10;81.40
20546;DHT22;10431;50.228;9.112;2023-04-03T19:39:17;20.20;81.70
20546;DHT22;10431;50.228;9.112;2023-04-03T19:41:44;20.20;81.80
20546;DHT22;10431;50.228;9.112;2023-04-03T19:44:11;20.20;81.90
20546;DHT22;10431;50.228;9.112;2023-04-03T19:46:37;20.20;81.90
20546;DHT22;10431;50.228;9.112;2023-04-03T19:49:04;20.20;81.90
20546;DHT22;10431;50.228;9.112;2023-04-03T19:51:30;20.20;82.00
20546;DHT22;10431;50.228;9.112;2023-04-03T19:53:56;20.20;82.20
20546;DHT22;10431;50.228;9.112;2023-04-03T19:56:23;20.20;82.30
20546;DHT22;10431;50.228;9.112;2023-04-03T19:58:49;20.20;82.30
20546;DHT22;10431;50.228;9.112;2023-04-03T20:01:22;20.20;82.40
20546;DHT22;10431;50.228;9.112;2023-04-03T20:03:49;20.30;82.40
20546;DHT22;10431;50.228;9.112;2023-04-03T20:06:15;20.30;82.40
20546;DHT22;10431;50.228;9.112;2023-04-03T20:08:42;20.30;82.50
20546;DHT22;10431;50.228;9.112;2023-04-03T20:11:09;20.30;82.70
20546;DHT22;10431;50.228;9.112;2023-04-03T20:13:35;20.30;82.80
20546;DHT22;10431;50.228;9.112;2023-04-03T20:16:05;20.20;82.80
20546;DHT22;10431;50.228;9.112;2023-04-03T20:18:32;20.20;82.90
20546;DHT22;10431;50.228;9.112;2023-04-03T20:21:01;20.20;83.00
20546;DHT22;10431;50.228;9.112;2023-04-03T20:23:29;20.20;83.20
20546;DHT22;10431;50.228;9.112;2023-04-03T20:25:57;20.20;83.30
20546;DHT22;10431;50.228;9.112;2023-04-03T20:28:24;20.20;83.40
20546;DHT22;10431;50.228;9.112;2023-04-03T20:30:51;20.20;83.50
20546;DHT22;10431;50.228;9.112;2023-04-03T20:33:20;20.20;83.60
20546;DHT22;10431;50.228;9.112;2023-04-03T20:35:47;20.20;83.50
20546;DHT22;10431;50.228;9.112;2023-04-03T20:38:15;20.20;83.60
20546;DHT22;10431;50.228;9.112;2023-04-03T20:40:41;20.20;83.70
20546;DHT22;10431;50.228;9.112;2023-04-03T20:43:07;20.20;83.80
20546;DHT22;10431;50.228;9.112;2023-04-03T20:45:34;20.10;83.70
20546;DHT22;10431;50.228;9.112;2023-04-03T20:48:01;20.10;83.90
20546;DHT22;10431;50.228;9.112;2023-04-03T20:50:29;20.10;84.60
20546;DHT22;10431;50.228;9.112;2023-04-03T20:52:55;20.10;84.00
20546;DHT22;10431;50.228;9.112;2023-04-03T20:55:23;20.10;84.00
20546;DHT22;10431;50.228;9.112;2023-04-03T20:57:49;20.20;83.90
20546;DHT22;10431;50.228;9.112;2023-04-03T21:00:16;20.20;83.80
20546;DHT22;10431;50.228;9.112;2023-04-03T21:02:44;20.20;83.90
20546;DHT22;10431;50.228;9.112;2023-04-03T21:05:11;20.10;83.90
20546;DHT22;10431;50.228;9.112;2023-04-03T21:19:29;19.80;84.10
20546;DHT22;10431;50.228;9.112;2023-04-03T21:21:59;19.80;85.00
20546;DHT22;10431;50.228;9.112;2023-04-03T21:24:25;19.70;84.30
20546;DHT22;10431;50.228;9.112;2023-04-03T21:26:52;19.80;84.40
20546;DHT22;10431;50.228;9.112;2023-04-03T21:29:18;19.70;84.30
20546;DHT22;10431;50.228;9.112;2023-04-03T21:34:17;19.70;84.40
20546;DHT22;10431;50.228;9.112;2023-04-03T21:36:45;19.70;84.40
20546;DHT22;10431;50.228;9.112;2023-04-03T21:39:11;19.60;84.30
20546;DHT22;10431;50.228;9.112;2023-04-03T21:41:37;19.60;84.30
20546;DHT22;10431;50.228;9.112;2023-04-03T21:44:04;19.60;84.30
20546;DHT22;10431;50.228;9.112;2023-04-03T21:46:30;19.60;84.30
20546;DHT22;10431;50.228;9.112;2023-04-03T21:48:57;19.60;84.30
20546;DHT22;10431;50.228;9.112;2023-04-03T21:51:23;19.60;84.30
20546;DHT22;10431;50.228;9.112;2023-04-03T21:53:52;19.50;84.20
20546;DHT22;10431;50.228;9.112;2023-04-03T21:56:20;19.50;84.30
20546;DHT22;10431;50.228;9.112;2023-04-03T21:58:52;19.60;84.30
20546;DHT22;10431;50.228;9.112;2023-04-03T22:01:19;19.60;84.30
20546;DHT22;10431;50.228;9.112;2023-04-03T22:03:46;19.50;84.30
20546;DHT22;10431;50.228;9.112;2023-04-03T22:06:14;19.50;84.30
20546;DHT22;10431;50.228;9.112;2023-04-03T22:08:42;19.50;84.20
20546;DHT22;10431;50.228;9.112;2023-04-03T22:11:10;19.50;84.20
20546;DHT22;10431;50.228;9.112;2023-04-03T22:13:37;19.50;84.30
20546;DHT22;10431;50.228;9.112;2023-04-03T22:16:04;19.50;84.30
20546;DHT22;10431;50.228;9.112;2023-04-03T22:18:31;19.50;84.30
20546;DHT22;10431;50.228;9.112;2023-04-03T22:20:57;19.50;84.30
20546;DHT22;10431;50.228;9.112;2023-04-03T22:23:24;19.50;84.30
20546;DHT22;10431;50.228;9.112;2023-04-03T22:26:11;19.50;84.30
20546;DHT22;10431;50.228;9.112;2023-04-03T22:28:43;19.40;84.30
20546;DHT22;10431;50.228;9.112;2023-04-03T22:31:10;19.40;84.30
20546;DHT22;10431;50.228;9.112;2023-04-03T22:33:37;19.40;84.30
20546;DHT22;10431;50.228;9.112;2023-04-03T22:36:04;19.40;84.40
20546;DHT22;10431;50.228;9.112;2023-04-03T22:38:31;19.40;84.40
20546;DHT22;10431;50.228;9.112;2023-04-03T22:40:58;19.40;84.40
20546;DHT22;10431;50.228;9.112;2023-04-03T22:43:30;19.40;84.40
20546;DHT22;10431;50.228;9.112;2023-04-03T22:45:59;19.40;84.40
20546;DHT22;10431;50.228;9.112;2023-04-03T22:48:25;19.40;84.50
20546;DHT22;10431;50.228;9.112;2023-04-03T22:50:52;19.40;84.40
20546;DHT22;10431;50.228;9.112;2023-04-03T22:53:18;19.40;84.50
20546;DHT22;10431;50.228;9.112;2023-04-03T22:55:59;19.40;84.40
20546;DHT22;10431;50.228;9.112;2023-04-03T22:58:26;19.30;84.40
20546;DHT22;10431;50.228;9.112;2023-04-03T23:00:54;19.40;84.40
20546;DHT22;10431;50.228;9.112;2023-04-03T23:03:20;19.40;84.40
20546;DHT22;10431;50.228;9.112;2023-04-03T23:05:48;19.30;84.40
20546;DHT22;10431;50.228;9.112;2023-04-03T23:08:17;19.40;84.40
20546;DHT22;10431;50.228;9.112;2023-04-03T23:10:44;19.30;84.30
20546;DHT22;10431;50.228;9.112;2023-04-03T23:13:10;19.30;84.40
20546;DHT22;10431;50.228;9.112;2023-04-03T23:15:37;19.30;84.30
20546;DHT22;10431;50.228;9.112;2023-04-03T23:18:03;19.30;84.30
20546;DHT22;10431;50.228;9.112;2023-04-03T23:20:29;19.30;84.30
20546;DHT22;10431;50.228;9.112;2023-04-03T23:22:55;19.30;84.30
20546;DHT22;10431;50.228;9.112;2023-04-03T23:25:22;19.30;84.30
20546;DHT22;10431;50.228;9.112;2023-04-03T23:27:52;19.30;84.30
20546;DHT22;10431;50.228;9.112;2023-04-03T23:30:19;19.30;84.30
20546;DHT22;10431;50.228;9.112;2023-04-03T23:32:46;19.30;84.30
20546;DHT22;10431;50.228;9.112;2023-04-03T23:35:13;19.30;84.30
20546;DHT22;10431;50.228;9.112;2023-04-03T23:37:39;19.30;84.30
20546;DHT22;10431;50.228;9.112;2023-04-03T23:40:06;19.30;84.30
20546;DHT22;10431;50.228;9.112;2023-04-03T23:42:33;19.30;84.30
20546;DHT22;10431;50.228;9.112;2023-04-03T23:44:59;19.30;84.30
20546;DHT22;10431;50.228;9.112;2023-04-03T23:47:25;19.30;84.20
20546;DHT22;10431;50.228;9.112;2023-04-03T23:49:52;19.30;84.20
20546;DHT22;10431;50.228;9.112;2023-04-03T23:52:18;19.30;84.20
20546;DHT22;10431;50.228;9.112;2023-04-03T23:54:44;19.30;84.10
20546;DHT22;10431;50.228;9.112;2023-04-03T23:57:11;19.30;84.20
20546;DHT22;10431;50.228;9.112;2023-04-03T23:59:37;19.30;84.10
